Waterford, Virginia
Current Conditions -  °F | °C
As of 10:35 AM on Thursday 30 Oct 2014 (Local Time) from KJYO Reporting Station
Clear Clear  
Wind Chill: 54°   Ceiling: Unl
Heat Index: 54°   Visibility: 10mi
Dew Point: 41°   Wind: 13mph
Humidity: 62%   Direction: 320°NW
Pressure: 30.09"   Gusts: 16mph
Location:  39.19°N, 77.61°W
Report Text: KJYO 301435Z AUTO 32011G14KT 10SM CLR 12/05 A3009 RMK AO2
Loading
Personal Weather Stations






























Interactive Weather Map
Tropical Storm Tracking
New forecast layout! Learn more

10-Day Weather Forecast

Advertisements
Track Severe Weather on mobile